Time;durP1;ratioP1;P1;durP2;ratioP2;P2;SDS_P1;SDS_P2;PMS_P1;PMS_P2;Temp;Humidity;BMP_temperature;BMP_pressure;BME280_temperature;BME280_humidity;BME280_pressure;Samples;Min_cycle;Max_cycle;Signal;HPM_P1;HPM_P2
2022/03/21 00:02:09;;;;;;;5.30;3.83;;;;;;;;;;5071433;28;20027;-75
2022/03/21 00:04:36;;;;;;;4.00;3.13;;;;;;;;;;5071592;28;20023;-75
2022/03/21 00:07:02;;;;;;;4.82;3.10;;;;;;;;;;5053728;28;20036;-75
2022/03/21 00:09:28;;;;;;;5.68;3.40;;;;;;;;;;5057681;28;20086;-75
2022/03/21 00:11:55;;;;;;;5.82;3.60;;;;;;;;;;5071511;28;20028;-75
2022/03/21 00:14:21;;;;;;;4.40;3.42;;;;;;;;;;5071090;28;20042;-75
2022/03/21 00:16:48;;;;;;;6.75;3.70;;;;;;;;;;5071704;28;20020;-75
2022/03/21 00:19:15;;;;;;;3.83;3.30;;;;;;;;;;5071504;28;20505;-76
2022/03/21 00:21:41;;;;;;;5.25;3.58;;;;;;;;;;5071405;28;20482;-75
2022/03/21 00:24:07;;;;;;;4.43;3.72;;;;;;;;;;5069965;28;20085;-75
2022/03/21 00:26:34;;;;;;;5.05;3.42;;;;;;;;;;5071799;28;20013;-75
2022/03/21 00:29:00;;;;;;;5.80;3.03;;;;;;;;;;5070878;28;20056;-76
2022/03/21 00:31:27;;;;;;;5.43;3.45;;;;;;;;;;5071278;28;20427;-75
2022/03/21 00:33:53;;;;;;;4.20;3.60;;;;;;;;;;5071325;28;20077;-75
2022/03/21 00:36:20;;;;;;;4.13;3.45;;;;;;;;;;5071774;28;20054;-74
2022/03/21 00:38:46;;;;;;;4.07;3.15;;;;;;;;;;5070899;28;20041;-75
2022/03/21 00:41:12;;;;;;;4.63;3.13;;;;;;;;;;5071434;28;20020;-75
2022/03/21 00:43:39;;;;;;;4.70;3.15;;;;;;;;;;5070719;28;20021;-75
2022/03/21 00:46:06;;;;;;;4.25;3.03;;;;;;;;;;5071691;28;20033;-75
2022/03/21 00:48:32;;;;;;;5.50;3.08;;;;;;;;;;5071313;28;20489;-75
2022/03/21 00:50:59;;;;;;;3.92;2.58;;;;;;;;;;5071491;28;20034;-75
2022/03/21 00:53:25;;;;;;;3.85;3.05;;;;;;;;;;5070958;28;20392;-75
2022/03/21 00:55:52;;;;;;;3.88;2.92;;;;;;;;;;5071135;28;20082;-75
2022/03/21 00:58:19;;;;;;;3.65;2.97;;;;;;;;;;5052794;28;20017;-75
2022/03/21 01:00:46;;;;;;;3.78;3.00;;;;;;;;;;5071025;28;20037;-75
2022/03/21 01:03:12;;;;;;;5.15;3.15;;;;;;;;;;5071578;28;20013;-75
2022/03/21 01:05:38;;;;;;;4.13;3.17;;;;;;;;;;5057887;28;20025;-75
2022/03/21 01:08:05;;;;;;;4.85;2.80;;;;;;;;;;5074818;28;20029;-74
2022/03/21 01:10:31;;;;;;;4.30;3.17;;;;;;;;;;5058183;28;20036;-75
2022/03/21 01:12:58;;;;;;;3.40;2.80;;;;;;;;;;5074426;28;20401;-75
2022/03/21 01:15:25;;;;;;;5.03;2.90;;;;;;;;;;5075436;28;20029;-75
2022/03/21 01:17:52;;;;;;;4.03;3.00;;;;;;;;;;5075304;28;20029;-75
2022/03/21 01:20:19;;;;;;;3.50;3.00;;;;;;;;;;5074844;28;20089;-75
2022/03/21 01:22:46;;;;;;;4.13;3.53;;;;;;;;;;5074511;28;20028;-75
2022/03/21 01:25:13;;;;;;;4.15;3.05;;;;;;;;;;5074393;28;20408;-75
2022/03/21 01:27:40;;;;;;;3.92;2.53;;;;;;;;;;5074900;28;20024;-75
2022/03/21 01:30:08;;;;;;;3.88;2.65;;;;;;;;;;5061487;28;20044;-75
2022/03/21 01:32:35;;;;;;;4.45;2.80;;;;;;;;;;5074807;28;20013;-75
2022/03/21 01:35:02;;;;;;;4.63;2.90;;;;;;;;;;5060823;28;20035;-75
2022/03/21 01:37:28;;;;;;;2.85;2.55;;;;;;;;;;5074446;28;20028;-75
2022/03/21 01:39:55;;;;;;;4.82;2.90;;;;;;;;;;5074044;28;20037;-75
2022/03/21 01:42:21;;;;;;;2.50;2.20;;;;;;;;;;5075035;28;20025;-75
2022/03/21 01:44:51;;;;;;;3.65;2.60;;;;;;;;;;5074139;28;20485;-75
2022/03/21 01:47:17;;;;;;;3.63;2.38;;;;;;;;;;5074042;28;20028;-75
2022/03/21 01:49:45;;;;;;;3.22;2.35;;;;;;;;;;5074128;28;20478;-75
2022/03/21 01:52:11;;;;;;;4.20;2.20;;;;;;;;;;5074061;28;20028;-75
2022/03/21 01:57:23;;;;;;;2.08;1.85;;;;;;;;;;5074613;28;20024;-75
2022/03/21 01:59:49;;;;;;;2.67;2.17;;;;;;;;;;5074049;28;20438;-75
2022/03/21 02:02:16;;;;;;;2.70;2.00;;;;;;;;;;5073861;28;20405;-75
2022/03/21 02:04:42;;;;;;;2.10;1.80;;;;;;;;;;5074149;28;20016;-75
2022/03/21 02:07:09;;;;;;;2.60;2.35;;;;;;;;;;5073905;28;20114;-75
2022/03/21 02:09:36;;;;;;;2.92;1.90;;;;;;;;;;5073450;28;20037;-75
2022/03/21 02:12:04;;;;;;;3.00;1.85;;;;;;;;;;5074324;28;20485;-75
2022/03/21 02:14:30;;;;;;;2.63;1.98;;;;;;;;;;5073766;28;20016;-75
2022/03/21 02:16:56;;;;;;;4.13;2.15;;;;;;;;;;5073786;28;20031;-75
2022/03/21 02:19:31;;;;;;;3.97;2.15;;;;;;;;;;5072972;28;20095;-75
2022/03/21 02:22:01;;;;;;;2.38;1.95;;;;;;;;;;5040180;28;20490;-75
2022/03/21 02:24:46;;;;;;;2.45;1.92;;;;;;;;;;5069919;28;20029;-75
2022/03/21 02:27:13;;;;;;;2.53;2.10;;;;;;;;;;5074296;28;20016;-74
2022/03/21 02:29:40;;;;;;;3.08;1.98;;;;;;;;;;5073313;28;20032;-74
2022/03/21 02:32:07;;;;;;;3.90;1.98;;;;;;;;;;5073289;28;20043;-75
2022/03/21 02:34:36;;;;;;;2.33;2.13;;;;;;;;;;5073353;28;20394;-75
2022/03/21 02:37:04;;;;;;;2.47;2.28;;;;;;;;;;5073300;28;20486;-75
2022/03/21 02:39:30;;;;;;;2.63;1.85;;;;;;;;;;5073079;28;20485;-74
2022/03/21 02:41:57;;;;;;;4.18;2.50;;;;;;;;;;5060508;28;20037;-75
2022/03/21 02:44:23;;;;;;;3.60;2.05;;;;;;;;;;5073618;28;20016;-74
2022/03/21 02:46:50;;;;;;;3.55;2.13;;;;;;;;;;5073044;28;20424;-75
2022/03/21 02:49:16;;;;;;;3.42;2.42;;;;;;;;;;5073017;28;20028;-75
2022/03/21 02:51:43;;;;;;;2.95;2.10;;;;;;;;;;5073083;28;20028;-75
2022/03/21 02:54:11;;;;;;;2.70;2.15;;;;;;;;;;5073390;28;20028;-75
2022/03/21 02:56:37;;;;;;;2.78;2.10;;;;;;;;;;5072816;28;20023;-75
2022/03/21 02:59:03;;;;;;;4.13;2.78;;;;;;;;;;5072812;28;20035;-75
2022/03/21 03:01:30;;;;;;;5.18;2.30;;;;;;;;;;5072808;28;20520;-75
2022/03/21 03:03:56;;;;;;;3.30;2.40;;;;;;;;;;5054903;28;20032;-75
2022/03/21 03:06:22;;;;;;;5.32;2.53;;;;;;;;;;5073663;28;20073;-75
2022/03/21 03:08:49;;;;;;;2.45;1.92;;;;;;;;;;5072116;28;20047;-75
2022/03/21 03:11:15;;;;;;;2.40;2.10;;;;;;;;;;5072557;28;20031;-75
2022/03/21 03:13:41;;;;;;;3.38;2.72;;;;;;;;;;5057484;28;20490;-75
2022/03/21 03:16:08;;;;;;;2.92;2.20;;;;;;;;;;5072446;28;20048;-75
2022/03/21 03:18:34;;;;;;;4.03;2.40;;;;;;;;;;5057533;28;20039;-74
2022/03/21 03:21:01;;;;;;;3.83;2.67;;;;;;;;;;5073219;28;20078;-75
2022/03/21 03:23:29;;;;;;;5.03;2.03;;;;;;;;;;5072209;28;20023;-75
2022/03/21 03:25:59;;;;;;;2.28;1.90;;;;;;;;;;5072381;28;20020;-75
2022/03/21 03:28:25;;;;;;;2.50;2.15;;;;;;;;;;5072236;28;20029;-75
2022/03/21 03:30:52;;;;;;;3.10;1.95;;;;;;;;;;5071544;28;20016;-75
2022/03/21 03:33:18;;;;;;;2.63;2.28;;;;;;;;;;5073153;28;20028;-75
2022/03/21 03:35:44;;;;;;;2.25;1.90;;;;;;;;;;5071765;28;20385;-74
2022/03/21 03:38:11;;;;;;;1.98;1.77;;;;;;;;;;5072090;28;20048;-75
2022/03/21 03:40:37;;;;;;;2.67;2.03;;;;;;;;;;5072028;28;20028;-75
2022/03/21 03:43:04;;;;;;;2.20;2.00;;;;;;;;;;5072291;28;20025;-75
2022/03/21 03:45:30;;;;;;;2.30;1.80;;;;;;;;;;5072080;28;20377;-75
2022/03/21 03:47:57;;;;;;;4.35;1.65;;;;;;;;;;5072306;28;20032;-75
2022/03/21 03:50:23;;;;;;;1.98;1.75;;;;;;;;;;5071499;28;20058;-75
2022/03/21 03:52:50;;;;;;;2.83;1.80;;;;;;;;;;5071771;28;20464;-75
2022/03/21 03:55:19;;;;;;;2.03;1.88;;;;;;;;;;5071840;28;20382;-75
2022/03/21 03:57:46;;;;;;;2.40;2.13;;;;;;;;;;5071740;28;20028;-75
2022/03/21 04:00:13;;;;;;;2.20;2.00;;;;;;;;;;5072268;28;20029;-75
2022/03/21 04:05:25;;;;;;;1.90;1.60;;;;;;;;;;5071255;28;20027;-75
2022/03/21 04:07:52;;;;;;;1.90;1.70;;;;;;;;;;5071580;28;20122;-75
2022/03/21 04:10:21;;;;;;;2.28;1.80;;;;;;;;;;5071487;28;20033;-75
2022/03/21 04:12:48;;;;;;;3.92;2.08;;;;;;;;;;5071459;28;20020;-75
2022/03/21 04:15:15;;;;;;;3.70;2.15;;;;;;;;;;5072183;28;20087;-75
2022/03/21 04:17:42;;;;;;;3.20;2.55;;;;;;;;;;5071494;28;20412;-75
2022/03/21 04:20:09;;;;;;;3.22;2.47;;;;;;;;;;5070996;28;20495;-75
2022/03/21 04:22:35;;;;;;;3.10;1.90;;;;;;;;;;5071563;28;20017;-76
2022/03/21 04:25:04;;;;;;;2.65;2.08;;;;;;;;;;5053557;28;20024;-75
2022/03/21 04:27:30;;;;;;;2.70;2.30;;;;;;;;;;5071541;28;20409;-75
2022/03/21 04:29:57;;;;;;;2.80;2.08;;;;;;;;;;5071680;28;20040;-75
2022/03/21 04:32:23;;;;;;;2.30;2.10;;;;;;;;;;5071226;28;20503;-75
2022/03/21 04:34:49;;;;;;;2.70;1.98;;;;;;;;;;5056984;28;20036;-75
2022/03/21 04:37:16;;;;;;;2.53;2.15;;;;;;;;;;5071196;28;20009;-75
2022/03/21 04:39:42;;;;;;;3.10;2.45;;;;;;;;;;5071178;28;20042;-75
2022/03/21 04:42:08;;;;;;;2.78;2.30;;;;;;;;;;5071564;28;20017;-75
2022/03/21 04:44:35;;;;;;;3.35;2.53;;;;;;;;;;5071131;28;20133;-76
2022/03/21 04:47:01;;;;;;;3.65;2.55;;;;;;;;;;5071173;28;20042;-76
2022/03/21 04:49:28;;;;;;;3.72;2.50;;;;;;;;;;5070667;28;20537;-75
2022/03/21 04:51:54;;;;;;;5.55;2.72;;;;;;;;;;5071297;28;20028;-75
2022/03/21 04:54:20;;;;;;;3.13;2.30;;;;;;;;;;5071912;28;20035;-75
2022/03/21 04:56:47;;;;;;;3.53;2.83;;;;;;;;;;5070880;28;20025;-75
2022/03/21 04:59:13;;;;;;;5.07;2.45;;;;;;;;;;5057416;28;20033;-75
2022/03/21 05:01:39;;;;;;;3.78;2.63;;;;;;;;;;5071189;28;20028;-75
2022/03/21 05:04:07;;;;;;;3.70;2.08;;;;;;;;;;5070628;28;20518;-75
2022/03/21 05:06:34;;;;;;;3.08;2.10;;;;;;;;;;5071068;28;20371;-75
2022/03/21 05:09:03;;;;;;;2.22;2.03;;;;;;;;;;5071424;28;20040;-75
2022/03/21 05:11:30;;;;;;;5.05;2.35;;;;;;;;;;5070680;28;20021;-75
2022/03/21 05:13:56;;;;;;;3.20;2.30;;;;;;;;;;5070789;28;20393;-75
2022/03/21 05:16:23;;;;;;;2.45;1.95;;;;;;;;;;5070850;28;20020;-75
2022/03/21 05:18:50;;;;;;;5.78;2.38;;;;;;;;;;5070269;28;22910;-74
2022/03/21 05:21:17;;;;;;;3.85;2.70;;;;;;;;;;5071446;28;20035;-75
2022/03/21 05:31:58;;;;;;;5.60;3.55;;;;;;;;;;5070360;28;20398;-75
2022/03/21 05:37:10;;;;;;;7.38;4.03;;;;;;;;;;5056687;28;20038;-75
2022/03/21 05:40:31;;;;;;;4.60;3.38;;;;;;;;;;5070681;28;20040;-76
2022/03/21 05:42:26;;;;;;;4.68;3.58;;;;;;;;;;5067281;28;20031;-76
2022/03/21 05:44:52;;;;;;;6.43;4.55;;;;;;;;;;5071038;28;20047;-75
2022/03/21 05:47:19;;;;;;;8.70;5.20;;;;;;;;;;5070141;28;20025;-75
2022/03/21 05:49:45;;;;;;;7.43;4.80;;;;;;;;;;5070423;28;20028;-75
2022/03/21 05:52:11;;;;;;;9.90;4.82;;;;;;;;;;5052620;28;20031;-76
2022/03/21 05:54:38;;;;;;;10.45;5.55;;;;;;;;;;5073920;28;20028;-75
2022/03/21 05:57:04;;;;;;;11.65;5.88;;;;;;;;;;5074729;28;20029;-75
2022/03/21 06:02:16;;;;;;;10.20;5.93;;;;;;;;;;5073546;28;20023;-75
2022/03/21 06:04:42;;;;;;;10.60;5.72;;;;;;;;;;5073851;28;20059;-76
2022/03/21 06:07:10;;;;;;;11.57;5.90;;;;;;;;;;5074017;28;20021;-76
2022/03/21 06:09:36;;;;;;;11.43;7.03;;;;;;;;;;5073902;28;20054;-74
2022/03/21 06:12:03;;;;;;;13.70;6.13;;;;;;;;;;5060880;28;20028;-75
2022/03/21 06:14:29;;;;;;;10.70;6.35;;;;;;;;;;5073833;28;20370;-75
2022/03/21 06:16:56;;;;;;;13.10;6.80;;;;;;;;;;5073508;28;20030;-75
2022/03/21 06:19:22;;;;;;;11.48;6.50;;;;;;;;;;5074034;28;20028;-75
2022/03/21 06:21:49;;;;;;;10.20;6.40;;;;;;;;;;5073762;28;20027;-75
2022/03/21 06:24:16;;;;;;;11.27;6.90;;;;;;;;;;5074328;28;20032;-75
2022/03/21 06:26:43;;;;;;;11.73;7.30;;;;;;;;;;5073533;28;20487;-75
2022/03/21 06:29:09;;;;;;;11.65;6.55;;;;;;;;;;5073516;28;20043;-76
2022/03/21 06:31:35;;;;;;;8.68;6.68;;;;;;;;;;5072984;28;20031;-75
2022/03/21 06:34:03;;;;;;;9.07;7.25;;;;;;;;;;5073443;28;20493;-75
2022/03/21 06:36:30;;;;;;;11.73;7.07;;;;;;;;;;5073728;28;20021;-75
2022/03/21 06:38:56;;;;;;;13.15;8.13;;;;;;;;;;5073236;28;20051;-75
2022/03/21 06:41:22;;;;;;;18.15;8.63;;;;;;;;;;5073512;28;20031;-75
2022/03/21 06:43:49;;;;;;;13.75;8.05;;;;;;;;;;5073348;28;20039;-75
2022/03/21 06:46:15;;;;;;;18.63;9.75;;;;;;;;;;5072811;28;20017;-75
2022/03/21 06:48:42;;;;;;;18.33;10.63;;;;;;;;;;5072986;28;20045;-75
2022/03/21 06:51:08;;;;;;;22.40;10.07;;;;;;;;;;5073832;28;20024;-75
2022/03/21 06:53:34;;;;;;;19.27;11.05;;;;;;;;;;5072962;28;20117;-75
2022/03/21 06:56:01;;;;;;;16.83;10.55;;;;;;;;;;5059686;28;20474;-75
2022/03/21 06:58:27;;;;;;;17.95;10.38;;;;;;;;;;5073155;28;20478;-75
2022/03/21 07:00:53;;;;;;;23.13;10.90;;;;;;;;;;5072572;28;20013;-75
2022/03/21 07:03:20;;;;;;;17.80;10.93;;;;;;;;;;5059867;28;20039;-75
2022/03/21 07:05:46;;;;;;;19.35;11.10;;;;;;;;;;5059235;28;20014;-74
2022/03/21 07:08:13;;;;;;;23.17;11.63;;;;;;;;;;5072695;28;20029;-75
2022/03/21 07:10:44;;;;;;;29.08;11.27;;;;;;;;;;5072455;28;20519;-75
2022/03/21 07:13:11;;;;;;;21.55;11.75;;;;;;;;;;5067642;28;20021;-76
2022/03/21 07:15:37;;;;;;;23.95;11.63;;;;;;;;;;5071200;28;20025;-76
2022/03/21 07:18:05;;;;;;;28.98;12.65;;;;;;;;;;5072946;28;20028;-74
2022/03/21 07:20:31;;;;;;;23.92;11.95;;;;;;;;;;5071427;28;20029;-75
2022/03/21 07:22:58;;;;;;;21.55;11.30;;;;;;;;;;5054450;28;20028;-76
2022/03/21 07:25:24;;;;;;;20.08;11.85;;;;;;;;;;5071895;28;20077;-75
2022/03/21 07:27:51;;;;;;;29.88;11.98;;;;;;;;;;5069343;28;20044;-75
2022/03/21 07:30:18;;;;;;;21.80;12.63;;;;;;;;;;5069969;28;20396;-76
2022/03/21 07:32:45;;;;;;;27.52;11.73;;;;;;;;;;5068017;28;20454;-74
2022/03/21 07:35:13;;;;;;;27.83;12.98;;;;;;;;;;5061985;28;20473;-73
2022/03/21 07:37:54;;;;;;;23.38;12.40;;;;;;;;;;5066833;28;20043;-74
2022/03/21 07:40:20;;;;;;;21.33;12.48;;;;;;;;;;5071323;28;20543;-73
2022/03/21 07:42:48;;;;;;;22.30;11.93;;;;;;;;;;5070925;28;20021;-74
2022/03/21 07:47:59;;;;;;;22.48;12.25;;;;;;;;;;5070336;28;20016;-73
2022/03/21 07:50:26;;;;;;;20.55;12.02;;;;;;;;;;5070574;28;20493;-73
2022/03/21 07:52:54;;;;;;;22.20;11.88;;;;;;;;;;5069994;28;20016;-73
2022/03/21 07:55:20;;;;;;;25.27;12.10;;;;;;;;;;5071148;28;20028;-73
2022/03/21 15:53:04;;;;;;;13.38;7.65;;;;;;;;;;5109121;27;20454;-72
2022/03/21 15:55:35;;;;;;;19.83;9.05;;;;;;;;;;5109766;28;20049;-72
2022/03/21 15:58:01;;;;;;;27.35;8.88;;;;;;;;;;5089829;28;20017;-72
2022/03/21 16:00:29;;;;;;;18.23;9.40;;;;;;;;;;5107455;28;20035;-71
2022/03/21 16:02:57;;;;;;;19.65;8.85;;;;;;;;;;5105056;28;20526;-72
2022/03/21 16:05:24;;;;;;;17.73;9.15;;;;;;;;;;5109211;28;20040;-72
2022/03/21 16:07:51;;;;;;;19.15;9.75;;;;;;;;;;5105030;28;20027;-72
2022/03/21 16:10:17;;;;;;;19.08;8.95;;;;;;;;;;5104382;28;20038;-72
2022/03/21 16:12:43;;;;;;;22.77;6.97;;;;;;;;;;5106297;28;20036;-70
2022/03/21 16:15:11;;;;;;;17.13;9.38;;;;;;;;;;5108503;28;20028;-70
2022/03/21 16:17:38;;;;;;;15.05;8.10;;;;;;;;;;5106297;28;20427;-70
2022/03/21 16:20:05;;;;;;;16.73;7.18;;;;;;;;;;5106965;28;20482;-69
2022/03/21 16:22:31;;;;;;;20.70;9.82;;;;;;;;;;5105732;28;20397;-70
2022/03/21 16:24:57;;;;;;;21.05;8.75;;;;;;;;;;5105816;28;20027;-70
2022/03/21 16:27:25;;;;;;;20.20;8.93;;;;;;;;;;5110520;28;20488;-68
2022/03/21 16:29:51;;;;;;;21.75;9.35;;;;;;;;;;5106218;28;20089;-70
2022/03/21 16:32:17;;;;;;;22.20;8.30;;;;;;;;;;5106070;28;20084;-70
2022/03/21 16:34:45;;;;;;;15.80;8.43;;;;;;;;;;5106802;28;20024;-73
2022/03/21 16:37:15;;;;;;;15.63;6.82;;;;;;;;;;5106151;28;20023;-72
2022/03/21 16:39:41;;;;;;;17.40;8.07;;;;;;;;;;5107089;28;20030;-72
2022/03/21 16:42:07;;;;;;;21.35;9.48;;;;;;;;;;5105567;28;20392;-72
2022/03/21 16:44:35;;;;;;;20.15;9.07;;;;;;;;;;5106383;28;20016;-72
2022/03/21 16:47:01;;;;;;;20.45;9.43;;;;;;;;;;5106223;28;20049;-73
2022/03/21 16:49:28;;;;;;;18.23;8.02;;;;;;;;;;5105437;28;20030;-73
2022/03/21 16:51:55;;;;;;;21.23;8.65;;;;;;;;;;5106200;28;20047;-72
2022/03/21 16:54:21;;;;;;;20.50;8.18;;;;;;;;;;5108163;28;20094;-73
2022/03/21 16:56:50;;;;;;;22.25;8.88;;;;;;;;;;5106215;28;20024;-72
2022/03/21 16:59:17;;;;;;;23.10;8.30;;;;;;;;;;5106126;28;20032;-73
2022/03/21 17:01:44;;;;;;;16.20;7.82;;;;;;;;;;5105905;28;20040;-73
2022/03/21 17:04:10;;;;;;;19.45;8.73;;;;;;;;;;5093602;28;20023;-72
2022/03/21 17:06:37;;;;;;;20.30;8.75;;;;;;;;;;5093766;28;20028;-73
2022/03/21 17:09:05;;;;;;;18.13;8.55;;;;;;;;;;5092371;28;20030;-73
2022/03/21 17:11:32;;;;;;;19.45;7.72;;;;;;;;;;5091820;28;20514;-73
2022/03/21 17:14:00;;;;;;;18.35;7.10;;;;;;;;;;5091498;28;20020;-73
2022/03/21 17:16:30;;;;;;;15.90;7.35;;;;;;;;;;5092639;28;20016;-73
2022/03/21 17:24:26;;;;;;;23.92;8.50;;;;;;;;;;5094117;28;20073;-73
2022/03/21 17:26:52;;;;;;;23.85;8.40;;;;;;;;;;5092272;28;20030;-72
2022/03/21 17:29:19;;;;;;;20.83;7.60;;;;;;;;;;5092343;28;20020;-72
2022/03/21 17:31:46;;;;;;;19.83;6.78;;;;;;;;;;5091028;28;20028;-72
2022/03/21 17:34:13;;;;;;;26.50;7.00;;;;;;;;;;5091275;28;20031;-72
2022/03/21 17:36:41;;;;;;;17.15;7.55;;;;;;;;;;5092665;28;20411;-72
2022/03/21 17:39:08;;;;;;;18.08;8.15;;;;;;;;;;5093842;28;20031;-73
2022/03/21 17:41:34;;;;;;;18.17;7.38;;;;;;;;;;5092028;28;20505;-72
2022/03/21 17:44:01;;;;;;;23.90;8.18;;;;;;;;;;5091929;28;20020;-72
2022/03/21 17:46:27;;;;;;;18.55;7.72;;;;;;;;;;5092088;28;20086;-73
2022/03/21 17:48:53;;;;;;;18.55;6.50;;;;;;;;;;5091824;28;20028;-73
2022/03/21 17:51:20;;;;;;;17.50;7.15;;;;;;;;;;5093334;28;20440;-73
2022/03/21 17:53:47;;;;;;;22.83;8.50;;;;;;;;;;5092219;28;20028;-73
2022/03/21 17:56:14;;;;;;;18.55;8.02;;;;;;;;;;5091564;28;20488;-73
2022/03/21 17:58:40;;;;;;;24.73;8.65;;;;;;;;;;5090230;28;20382;-73
2022/03/21 18:01:09;;;;;;;21.38;7.60;;;;;;;;;;5091768;28;20028;-73
2022/03/21 18:03:35;;;;;;;24.52;8.32;;;;;;;;;;5092964;28;20066;-73
2022/03/21 18:06:03;;;;;;;18.90;8.57;;;;;;;;;;5091950;28;20031;-73
2022/03/21 18:08:29;;;;;;;20.98;8.82;;;;;;;;;;5091609;28;20547;-73
2022/03/21 18:10:56;;;;;;;24.23;8.00;;;;;;;;;;5091705;28;20028;-73
2022/03/21 18:13:23;;;;;;;24.90;8.55;;;;;;;;;;5091515;28;20036;-73
2022/03/21 18:15:50;;;;;;;19.50;8.18;;;;;;;;;;5090495;28;20377;-73
2022/03/21 18:18:17;;;;;;;23.40;8.10;;;;;;;;;;5093608;28;20045;-73
2022/03/21 18:20:45;;;;;;;23.38;9.60;;;;;;;;;;5090832;28;20019;-73
2022/03/21 18:23:15;;;;;;;26.50;8.93;;;;;;;;;;5091297;28;20515;-73
2022/03/21 18:25:42;;;;;;;27.98;9.32;;;;;;;;;;5091415;28;20012;-73
2022/03/21 18:28:10;;;;;;;23.88;8.75;;;;;;;;;;5091160;28;20388;-73
2022/03/21 18:30:36;;;;;;;22.20;8.15;;;;;;;;;;5092507;28;20022;-73
2022/03/21 18:33:03;;;;;;;23.95;8.18;;;;;;;;;;5092017;28;20028;-73
2022/03/21 18:35:29;;;;;;;29.25;9.00;;;;;;;;;;5090572;28;20020;-73
2022/03/21 18:37:56;;;;;;;27.30;8.52;;;;;;;;;;5089463;28;20030;-73
2022/03/21 18:40:22;;;;;;;26.92;9.07;;;;;;;;;;5090049;28;20034;-73
2022/03/21 18:42:49;;;;;;;20.60;9.35;;;;;;;;;;5090763;28;20504;-73
2022/03/21 18:45:17;;;;;;;23.10;8.63;;;;;;;;;;5093298;28;20038;-73
2022/03/21 18:47:44;;;;;;;21.08;8.75;;;;;;;;;;5090731;28;20028;-73
2022/03/21 18:50:11;;;;;;;23.50;8.95;;;;;;;;;;5090219;28;20037;-73
2022/03/21 18:52:37;;;;;;;23.70;9.30;;;;;;;;;;5090594;28;20517;-73
2022/03/21 18:55:06;;;;;;;23.48;9.23;;;;;;;;;;5089567;28;20023;-73
2022/03/21 18:57:33;;;;;;;25.88;10.25;;;;;;;;;;5092158;28;20028;-73
2022/03/21 18:59:59;;;;;;;19.05;9.43;;;;;;;;;;5090052;28;20028;-73
2022/03/21 19:02:25;;;;;;;20.02;9.57;;;;;;;;;;5090365;28;20070;-73
2022/03/21 19:04:52;;;;;;;25.48;9.85;;;;;;;;;;5090211;28;20500;-73
2022/03/21 19:07:18;;;;;;;24.08;8.93;;;;;;;;;;5090460;28;20076;-73
2022/03/21 19:09:45;;;;;;;27.98;9.25;;;;;;;;;;5090778;28;20030;-73
2022/03/21 19:12:11;;;;;;;24.00;9.85;;;;;;;;;;5090237;28;20390;-73
2022/03/21 19:14:37;;;;;;;24.20;9.77;;;;;;;;;;5090218;28;20026;-73
2022/03/21 19:17:04;;;;;;;26.45;10.25;;;;;;;;;;5088897;28;20028;-73
2022/03/21 19:19:30;;;;;;;19.77;9.63;;;;;;;;;;5089958;28;20024;-73
2022/03/21 19:21:56;;;;;;;25.92;8.93;;;;;;;;;;5090074;28;20024;-73
2022/03/21 19:24:23;;;;;;;30.30;10.23;;;;;;;;;;5092310;28;20477;-73
2022/03/21 19:26:49;;;;;;;22.15;9.05;;;;;;;;;;5089808;28;20023;-73
2022/03/21 19:29:16;;;;;;;25.95;8.80;;;;;;;;;;5090094;28;20038;-73
2022/03/21 19:31:42;;;;;;;23.55;8.52;;;;;;;;;;5090303;28;20031;-73
2022/03/21 19:34:11;;;;;;;22.45;9.25;;;;;;;;;;5090096;28;20024;-73
2022/03/21 19:36:38;;;;;;;21.48;9.38;;;;;;;;;;5091286;28;20031;-73
2022/03/21 19:39:05;;;;;;;26.88;9.88;;;;;;;;;;5091118;28;20016;-73
2022/03/21 19:41:32;;;;;;;24.25;8.38;;;;;;;;;;5090036;28;20049;-73
2022/03/21 19:43:59;;;;;;;20.20;8.23;;;;;;;;;;5089954;28;20012;-73
2022/03/21 19:46:25;;;;;;;21.30;8.60;;;;;;;;;;5090039;28;20024;-73
2022/03/21 19:48:51;;;;;;;20.02;8.35;;;;;;;;;;5089704;28;20043;-73
2022/03/21 19:51:18;;;;;;;20.33;8.20;;;;;;;;;;5091785;28;20040;-73
2022/03/21 19:53:44;;;;;;;22.20;8.85;;;;;;;;;;5089796;28;20038;-73
2022/03/21 19:56:10;;;;;;;27.13;8.80;;;;;;;;;;5088277;28;20396;-73
2022/03/21 19:58:37;;;;;;;26.40;9.77;;;;;;;;;;5089665;28;20034;-73
2022/03/21 20:01:03;;;;;;;31.05;9.35;;;;;;;;;;5089847;28;20016;-73
2022/03/21 20:03:30;;;;;;;27.17;8.82;;;;;;;;;;5091471;28;20070;-73
2022/03/21 20:05:56;;;;;;;19.10;7.80;;;;;;;;;;5088589;28;20025;-73
2022/03/21 20:08:23;;;;;;;22.20;8.88;;;;;;;;;;5089953;28;20042;-73
2022/03/21 20:10:49;;;;;;;23.90;8.43;;;;;;;;;;5089798;28;20016;-73
2022/03/21 20:13:16;;;;;;;21.55;8.38;;;;;;;;;;5089781;28;20068;-73
2022/03/21 20:15:43;;;;;;;27.15;9.77;;;;;;;;;;5090565;28;20032;-73
2022/03/21 20:18:13;;;;;;;24.67;9.23;;;;;;;;;;5090957;28;20024;-73
2022/03/21 20:20:40;;;;;;;22.42;9.90;;;;;;;;;;5089886;28;20029;-73
2022/03/21 20:23:06;;;;;;;25.38;8.23;;;;;;;;;;5089531;28;20034;-73
2022/03/21 20:25:33;;;;;;;20.63;8.48;;;;;;;;;;5089822;28;20026;-73
2022/03/21 20:28:00;;;;;;;24.27;8.25;;;;;;;;;;5073517;28;20367;-72
2022/03/21 20:30:27;;;;;;;23.98;8.80;;;;;;;;;;5091616;28;20039;-73
2022/03/21 20:32:55;;;;;;;20.70;8.32;;;;;;;;;;5089060;28;21470;-74
2022/03/21 20:35:22;;;;;;;21.88;11.25;;;;;;;;;;5087935;28;20028;-73
2022/03/21 20:37:50;;;;;;;27.02;12.30;;;;;;;;;;5090075;28;20023;-73
2022/03/21 20:40:18;;;;;;;28.13;9.68;;;;;;;;;;5093366;28;20027;-73
2022/03/21 20:42:46;;;;;;;41.20;18.38;;;;;;;;;;5093541;28;20038;-73
2022/03/21 20:45:13;;;;;;;26.15;13.15;;;;;;;;;;5092970;28;20023;-72
2022/03/21 20:47:39;;;;;;;20.05;9.98;;;;;;;;;;5093248;28;20038;-73
2022/03/21 20:50:08;;;;;;;18.27;7.68;;;;;;;;;;5093330;28;20016;-73
2022/03/21 20:52:36;;;;;;;19.00;7.43;;;;;;;;;;5092903;28;20039;-73
2022/03/21 20:55:03;;;;;;;20.55;6.97;;;;;;;;;;5093016;28;20508;-73
2022/03/21 20:57:29;;;;;;;22.08;7.13;;;;;;;;;;5090756;28;20480;-73
2022/03/21 20:59:56;;;;;;;18.77;7.75;;;;;;;;;;5092596;28;20016;-73
2022/03/21 21:02:22;;;;;;;19.33;7.38;;;;;;;;;;5092689;28;20024;-73
2022/03/21 21:04:49;;;;;;;17.33;7.88;;;;;;;;;;5092793;28;20032;-73
2022/03/21 21:07:15;;;;;;;21.17;7.53;;;;;;;;;;5093137;28;20522;-73
2022/03/21 21:09:42;;;;;;;20.63;7.28;;;;;;;;;;5092288;28;20031;-73
2022/03/21 21:12:08;;;;;;;22.30;9.95;;;;;;;;;;5094141;28;20400;-73
2022/03/21 21:14:35;;;;;;;15.85;7.80;;;;;;;;;;5090720;28;20016;-73
2022/03/21 21:17:01;;;;;;;19.50;7.70;;;;;;;;;;5091293;28;20036;-73
2022/03/21 21:19:28;;;;;;;22.02;7.82;;;;;;;;;;5092504;28;20020;-73
2022/03/21 21:21:55;;;;;;;17.85;7.97;;;;;;;;;;5092507;28;20493;-73
2022/03/21 21:24:21;;;;;;;15.45;6.90;;;;;;;;;;5094599;28;20020;-73
2022/03/21 21:26:47;;;;;;;30.08;7.15;;;;;;;;;;5092281;28;20036;-73
2022/03/21 21:29:15;;;;;;;23.05;7.18;;;;;;;;;;5092277;28;20073;-73
2022/03/21 21:31:43;;;;;;;19.85;7.20;;;;;;;;;;5091046;28;20016;-73
2022/03/21 21:34:10;;;;;;;14.13;7.38;;;;;;;;;;5092322;28;20118;-72
2022/03/21 21:36:36;;;;;;;17.70;7.10;;;;;;;;;;5093466;28;20022;-72
2022/03/21 21:39:03;;;;;;;26.58;7.45;;;;;;;;;;5092825;28;20392;-73
2022/03/21 21:41:29;;;;;;;16.63;6.97;;;;;;;;;;5092243;28;20029;-73
2022/03/21 21:43:56;;;;;;;22.00;8.40;;;;;;;;;;5091690;28;20485;-73
2022/03/21 21:46:22;;;;;;;23.77;8.80;;;;;;;;;;5092001;28;20388;-73
2022/03/21 21:48:48;;;;;;;26.98;8.93;;;;;;;;;;5091945;28;20022;-73
2022/03/21 21:51:18;;;;;;;30.23;11.35;;;;;;;;;;5094057;28;20048;-73
2022/03/21 21:53:44;;;;;;;37.53;11.77;;;;;;;;;;5090483;28;20032;-73
2022/03/21 21:56:11;;;;;;;28.85;12.65;;;;;;;;;;5091841;28;20034;-73
2022/03/21 21:58:38;;;;;;;33.95;10.68;;;;;;;;;;5091520;28;20034;-73
2022/03/21 22:01:04;;;;;;;27.65;10.30;;;;;;;;;;5091552;28;20511;-73
2022/03/21 22:03:31;;;;;;;20.35;8.93;;;;;;;;;;5093751;28;20489;-73
2022/03/21 22:06:00;;;;;;;25.80;9.73;;;;;;;;;;5090502;28;20031;-73
2022/03/21 22:08:26;;;;;;;23.77;8.20;;;;;;;;;;5091539;28;20485;-73
2022/03/21 22:10:53;;;;;;;22.00;8.65;;;;;;;;;;5091734;28;20023;-73
2022/03/21 22:13:19;;;;;;;27.20;8.85;;;;;;;;;;5091192;28;20016;-73
2022/03/21 22:15:47;;;;;;;20.40;9.05;;;;;;;;;;5091677;28;20080;-73
2022/03/21 22:18:13;;;;;;;21.00;8.20;;;;;;;;;;5090290;28;20020;-73
2022/03/21 22:20:42;;;;;;;21.38;7.32;;;;;;;;;;5091303;28;20150;-73
2022/03/21 22:23:10;;;;;;;19.80;8.23;;;;;;;;;;5091261;28;20032;-73
2022/03/21 22:25:37;;;;;;;19.90;7.45;;;;;;;;;;5091270;28;20027;-73
2022/03/21 22:28:03;;;;;;;15.20;7.05;;;;;;;;;;5090848;28;20427;-73
2022/03/21 22:30:30;;;;;;;19.10;8.10;;;;;;;;;;5093397;28;20012;-73
2022/03/21 22:32:56;;;;;;;19.85;7.95;;;;;;;;;;5089472;28;20594;-73
2022/03/21 22:35:23;;;;;;;22.13;8.07;;;;;;;;;;5090960;28;20431;-73
2022/03/21 22:37:49;;;;;;;29.05;11.05;;;;;;;;;;5091015;28;20019;-73
2022/03/21 22:48:31;;;;;;;24.85;11.40;;;;;;;;;;5089074;28;20526;-73
2022/03/21 22:50:57;;;;;;;18.38;7.55;;;;;;;;;;5089178;28;20040;-73
2022/03/21 22:53:24;;;;;;;27.75;7.10;;;;;;;;;;5090737;28;20028;-73
2022/03/21 22:55:50;;;;;;;20.80;7.70;;;;;;;;;;5090351;28;20100;-72
2022/03/21 22:58:16;;;;;;;17.52;9.35;;;;;;;;;;5090629;28;20024;-73
2022/03/21 23:00:45;;;;;;;25.50;9.65;;;;;;;;;;5090907;28;20022;-73
2022/03/21 23:03:12;;;;;;;22.13;8.38;;;;;;;;;;5092434;28;20032;-73